createdAt,value
2023-01-27T00:00:27.702Z,102448.78
2023-01-27T00:02:54.344Z,102451.31
2023-01-27T00:05:21.010Z,102454.00
2023-01-27T00:07:48.014Z,102461.63
2023-01-27T00:10:17.253Z,102457.06
2023-01-27T00:13:03.503Z,102457.38
2023-01-27T00:15:31.267Z,102459.06
2023-01-27T00:17:58.162Z,102454.84
2023-01-27T00:20:44.209Z,102468.56
2023-01-27T00:23:40.987Z,102461.59
2023-01-27T00:26:12.975Z,102463.28
2023-01-27T00:28:43.065Z,102463.44
2023-01-27T00:31:31.234Z,102463.78
2023-01-27T00:34:01.965Z,102460.06
2023-01-27T00:36:29.649Z,102456.84
2023-01-27T00:38:56.621Z,102462.41
2023-01-27T00:41:23.404Z,102459.03
2023-01-27T00:43:53.300Z,102460.03
2023-01-27T00:46:22.427Z,102476.25
2023-01-27T00:48:49.583Z,102471.84
2023-01-27T00:51:16.689Z,102464.75
2023-01-27T00:53:43.270Z,102475.91
2023-01-27T00:56:10.379Z,102467.09
2023-01-27T00:58:37.327Z,102472.66
2023-01-27T01:01:06.609Z,102474.53
2023-01-27T01:03:35.283Z,102474.53
2023-01-27T01:06:05.108Z,102476.22
2023-01-27T01:08:33.479Z,102468.25
2023-01-27T01:11:02.904Z,102474.53
2023-01-27T01:13:29.481Z,102465.72
2023-01-27T01:15:57.117Z,102466.06
2023-01-27T01:18:25.356Z,102478.56
2023-01-27T01:20:51.944Z,102474.00
2023-01-27T01:23:18.484Z,102488.84
2023-01-27T01:25:54.056Z,102480.59
2023-01-27T01:28:21.515Z,102478.75
2023-01-27T01:30:48.175Z,102494.13
2023-01-27T01:33:15.146Z,102500.22
2023-01-27T01:35:41.744Z,102479.59
2023-01-27T01:38:09.498Z,102490.56
2023-01-27T01:40:43.869Z,102493.13
2023-01-27T01:43:16.346Z,102501.53
2023-01-27T01:45:45.799Z,102501.38
2023-01-27T01:48:21.944Z,102503.41
2023-01-27T01:50:54.721Z,102497.16
2023-01-27T01:53:29.310Z,102493.75
2023-01-27T01:55:58.915Z,102491.22
2023-01-27T01:58:28.069Z,102498.84
2023-01-27T02:00:56.145Z,102490.72
2023-01-27T02:03:25.320Z,102505.28
2023-01-27T02:05:54.464Z,102491.91
2023-01-27T02:08:40.036Z,102494.44
2023-01-27T02:11:08.373Z,102498.47
2023-01-27T02:13:38.667Z,102486.81
2023-01-27T02:16:05.870Z,102497.78
2023-01-27T02:18:32.787Z,102494.41
2023-01-27T02:20:59.473Z,102496.06
2023-01-27T02:23:47.252Z,102506.59
2023-01-27T02:26:36.373Z,102512.88
2023-01-27T02:29:09.203Z,102509.94
2023-01-27T02:31:36.106Z,102509.78
2023-01-27T02:34:13.864Z,102514.72
2023-01-27T02:36:49.213Z,102515.19
2023-01-27T02:39:18.469Z,102515.19
2023-01-27T02:41:49.193Z,102508.56
2023-01-27T02:44:15.906Z,102520.06
2023-01-27T02:46:43.846Z,102515.66
2023-01-27T02:49:11.037Z,102534.59
2023-01-27T02:51:37.559Z,102523.78
2023-01-27T02:54:04.809Z,102520.41
2023-01-27T02:56:31.478Z,102519.84
2023-01-27T02:58:58.224Z,102513.63
2023-01-27T03:01:38.381Z,102518.00
2023-01-27T03:04:05.942Z,102523.41
2023-01-27T03:06:33.532Z,102518.50
2023-01-27T03:09:00.030Z,102521.88
2023-01-27T03:11:46.097Z,102525.56
2023-01-27T03:14:12.837Z,102525.75
2023-01-27T03:16:57.975Z,102527.44
2023-01-27T03:19:26.664Z,102529.13
2023-01-27T03:21:54.360Z,102533.88
2023-01-27T03:24:22.254Z,102535.88
2023-01-27T03:26:49.292Z,102524.72
2023-01-27T03:29:36.662Z,102527.59
2023-01-27T03:32:03.455Z,102539.28
2023-01-27T03:34:31.854Z,102534.72
2023-01-27T03:37:28.033Z,102532.50
2023-01-27T03:40:14.500Z,102535.53
2023-01-27T03:43:00.043Z,102546.69
2023-01-27T03:45:45.253Z,102541.28
2023-01-27T03:48:12.857Z,102547.53
2023-01-27T03:50:43.699Z,102546.69
2023-01-27T03:53:11.010Z,102556.66
2023-01-27T03:55:38.587Z,102554.81
2023-01-27T03:58:20.029Z,102554.97
2023-01-27T04:01:00.788Z,102556.97
2023-01-27T04:03:49.471Z,102564.94
2023-01-27T04:06:39.730Z,102557.81
2023-01-27T04:09:07.492Z,102552.41
2023-01-27T04:11:52.934Z,102547.00
2023-01-27T04:14:19.518Z,102551.56
2023-01-27T04:16:46.077Z,102553.59
2023-01-27T04:19:12.956Z,102544.78
2023-01-27T04:21:39.953Z,102546.34
2023-01-27T04:24:08.896Z,102548.00
2023-01-27T04:26:35.530Z,102556.13
2023-01-27T04:29:03.406Z,102545.31
2023-01-27T04:31:32.468Z,102550.03
2023-01-27T04:33:59.185Z,102546.78
2023-01-27T04:36:25.711Z,102551.03
2023-01-27T04:38:52.176Z,102560.16
2023-01-27T04:41:18.680Z,102560.84
2023-01-27T04:43:45.226Z,102557.75
2023-01-27T04:46:11.835Z,102568.44
2023-01-27T04:48:38.374Z,102567.59
2023-01-27T04:51:04.996Z,102572.00
2023-01-27T04:53:31.499Z,102569.28
2023-01-27T04:56:03.217Z,102581.94
2023-01-27T04:58:29.750Z,102579.25
2023-01-27T05:00:56.293Z,102571.91
2023-01-27T05:03:22.860Z,102573.31
2023-01-27T05:05:49.361Z,102571.75
2023-01-27T05:08:15.850Z,102569.91
2023-01-27T05:10:45.281Z,102578.84
2023-01-27T05:13:11.943Z,102573.59
2023-01-27T05:15:38.534Z,102581.56
2023-01-27T05:18:05.092Z,102585.81
2023-01-27T05:20:31.885Z,102587.81
2023-01-27T05:23:18.396Z,102583.41
2023-01-27T05:25:45.066Z,102591.22
2023-01-27T05:28:12.013Z,102589.53
2023-01-27T05:30:38.927Z,102588.50
2023-01-27T05:33:05.576Z,102597.47
2023-01-27T05:35:35.467Z,102605.75
2023-01-27T05:38:02.352Z,102590.22
2023-01-27T05:40:29.006Z,102600.03
2023-01-27T05:42:55.552Z,102605.44
2023-01-27T05:45:22.033Z,102600.03
2023-01-27T05:47:50.330Z,102607.44
2023-01-27T05:50:17.201Z,102604.91
2023-01-27T05:52:43.679Z,102602.72
2023-01-27T05:55:10.208Z,102609.84
2023-01-27T05:57:36.900Z,102614.22
2023-01-27T06:00:04.200Z,102616.41
2023-01-27T06:02:34.912Z,102615.09
2023-01-27T06:05:01.536Z,102613.38
2023-01-27T06:07:28.085Z,102609.69
2023-01-27T06:09:54.550Z,102614.09
2023-01-27T06:12:21.102Z,102617.66
2023-01-27T06:14:47.672Z,102617.66
2023-01-27T06:17:14.723Z,102626.75
2023-01-27T06:19:41.291Z,102625.06
2023-01-27T06:22:07.841Z,102623.06
2023-01-27T06:24:34.382Z,102637.56
2023-01-27T06:27:00.955Z,102627.59
2023-01-27T06:29:27.481Z,102636.56
2023-01-27T06:31:54.088Z,102626.75
2023-01-27T06:34:20.713Z,102633.03
2023-01-27T06:36:47.220Z,102642.97
2023-01-27T06:39:13.788Z,102627.59
2023-01-27T06:41:40.326Z,102629.47
2023-01-27T06:44:06.832Z,102639.28
2023-01-27T06:46:34.261Z,102636.72
2023-01-27T06:49:00.815Z,102633.16
2023-01-27T06:51:27.401Z,102640.13
2023-01-27T06:53:53.889Z,102646.41
2023-01-27T06:56:20.385Z,102647.41
2023-01-27T06:58:46.980Z,102647.22
2023-01-27T07:01:13.658Z,102645.53
2023-01-27T07:03:41.151Z,102648.06
2023-01-27T07:06:10.908Z,102652.63
2023-01-27T07:08:37.550Z,102651.63
2023-01-27T07:11:05.246Z,102653.47
2023-01-27T07:13:31.894Z,102644.50
2023-01-27T07:15:58.560Z,102635.56
2023-01-27T07:18:25.139Z,102645.38
2023-01-27T07:20:52.060Z,102648.06
2023-01-27T07:23:18.631Z,102650.78
2023-01-27T07:25:45.204Z,102648.94
2023-01-27T07:28:11.668Z,102650.78
2023-01-27T07:30:39.259Z,102649.25
2023-01-27T07:33:13.926Z,102664.31
2023-01-27T07:35:42.511Z,102659.91
2023-01-27T07:38:09.787Z,102646.41
2023-01-27T07:40:36.322Z,102658.03
2023-01-27T07:43:03.229Z,102668.03
2023-01-27T07:45:29.948Z,102664.31
2023-01-27T07:48:03.854Z,102668.84
2023-01-27T07:50:30.654Z,102674.97
2023-01-27T07:53:01.483Z,102675.13
2023-01-27T07:55:28.934Z,102669.03
2023-01-27T07:57:55.764Z,102672.59
2023-01-27T08:00:22.540Z,102668.03
2023-01-27T08:02:56.477Z,102682.25
2023-01-27T08:05:23.471Z,102682.25
2023-01-27T08:07:50.881Z,102677.69
2023-01-27T08:10:21.430Z,102681.25
2023-01-27T08:12:48.200Z,102681.25
2023-01-27T08:15:18.710Z,102680.22
2023-01-27T08:17:53.763Z,102683.78
2023-01-27T08:20:20.295Z,102685.63
2023-01-27T08:22:46.784Z,102683.94
2023-01-27T08:25:13.267Z,102682.25
2023-01-27T08:27:39.785Z,102681.25
2023-01-27T08:30:06.699Z,102700.19
2023-01-27T08:32:34.548Z,102702.88
2023-01-27T08:35:01.035Z,102701.84
2023-01-27T08:37:27.568Z,102691.03
2023-01-27T08:39:54.378Z,102692.91
2023-01-27T08:42:21.596Z,102695.44
2023-01-27T08:44:48.089Z,102704.72
2023-01-27T08:47:14.568Z,102707.25
2023-01-27T08:49:41.098Z,102707.44
2023-01-27T08:52:07.623Z,102703.88
2023-01-27T08:54:34.163Z,102716.41
2023-01-27T08:57:00.668Z,102722.50
2023-01-27T08:59:27.194Z,102732.63
2023-01-27T09:01:53.675Z,102733.50
2023-01-27T09:04:22.815Z,102743.44
2023-01-27T09:06:50.362Z,102736.88
2023-01-27T09:09:17.011Z,102734.31
2023-01-27T09:11:45.124Z,102738.03
2023-01-27T09:14:12.311Z,102743.44
2023-01-27T09:16:38.896Z,102745.31
2023-01-27T09:19:05.444Z,102735.34
2023-01-27T09:21:31.946Z,102740.88
2023-01-27T09:23:58.691Z,102737.19
2023-01-27T09:26:25.476Z,102747.84
2023-01-27T09:28:52.031Z,102749.53
2023-01-27T09:31:18.674Z,102743.13
2023-01-27T09:33:45.312Z,102749.41
2023-01-27T09:36:15.584Z,102744.59
2023-01-27T09:39:06.710Z,102747.56
2023-01-27T09:42:22.645Z,102752.47
2023-01-27T09:45:15.986Z,102772.97
2023-01-27T09:48:07.284Z,102767.56
2023-01-27T09:50:43.475Z,102767.88
2023-01-27T09:53:28.516Z,102768.56
2023-01-27T09:56:38.236Z,102775.69
2023-01-27T09:59:20.956Z,102774.28
2023-01-27T10:01:56.566Z,102784.41
2023-01-27T10:04:45.090Z,102781.53
2023-01-27T10:07:42.567Z,102780.56
2023-01-27T10:10:17.666Z,102780.00
2023-01-27T10:13:11.896Z,102777.31
2023-01-27T10:16:24.446Z,102772.44
2023-01-27T10:19:14.416Z,102779.78
2023-01-27T10:22:02.182Z,102773.97
2023-01-27T10:24:57.223Z,102767.56
2023-01-27T10:27:25.784Z,102763.00
2023-01-27T10:30:08.471Z,102753.28
2023-01-27T10:32:59.602Z,102766.63
2023-01-27T10:35:33.844Z,102763.09
2023-01-27T10:38:09.372Z,102769.91
2023-01-27T10:40:41.978Z,102764.31
2023-01-27T10:43:14.793Z,102760.63
2023-01-27T10:45:52.220Z,102761.63
2023-01-27T10:48:23.172Z,102756.06
2023-01-27T10:51:10.429Z,102757.47
2023-01-27T10:53:52.546Z,102761.16
2023-01-27T10:56:28.644Z,102752.97
2023-01-27T10:59:06.691Z,102764.41
2023-01-27T11:01:39.674Z,102766.56
2023-01-27T11:04:18.939Z,102762.69
2023-01-27T11:06:47.250Z,102763.72
2023-01-27T11:09:40.321Z,102764.41
2023-01-27T11:12:12.592Z,102760.63
2023-01-27T11:14:48.903Z,102756.91
2023-01-27T11:17:33.516Z,102760.47
2023-01-27T11:20:06.757Z,102753.50
2023-01-27T11:22:56.209Z,102748.81
2023-01-27T11:26:03.788Z,102748.09
2023-01-27T11:28:42.220Z,102750.78
2023-01-27T11:31:37.428Z,102753.03
2023-01-27T11:34:13.136Z,102746.09
2023-01-27T11:36:39.669Z,102742.69
2023-01-27T11:39:06.353Z,102750.47
2023-01-27T11:41:37.551Z,102751.50
2023-01-27T11:44:09.008Z,102746.94
2023-01-27T11:46:36.516Z,102724.72
2023-01-27T11:49:03.050Z,102746.09
2023-01-27T11:51:37.632Z,102740.69
2023-01-27T11:54:18.499Z,102732.38
2023-01-27T11:56:47.800Z,102736.81
2023-01-27T11:59:22.382Z,102736.94
2023-01-27T12:01:59.608Z,102732.38
2023-01-27T12:04:39.647Z,102740.38
2023-01-27T12:07:29.929Z,102740.50
2023-01-27T12:09:56.477Z,102738.34
2023-01-27T12:12:26.440Z,102739.66
2023-01-27T12:15:00.906Z,102729.00
2023-01-27T12:17:53.547Z,102724.97
2023-01-27T12:20:39.426Z,102741.03
2023-01-27T12:23:24.295Z,102736.50
2023-01-27T12:25:57.476Z,102738.50
2023-01-27T12:28:37.879Z,102729.53
2023-01-27T12:31:09.754Z,102732.06
2023-01-27T12:33:40.647Z,102722.09
2023-01-27T12:36:22.399Z,102721.44
2023-01-27T12:38:53.131Z,102719.41
2023-01-27T12:41:27.108Z,102717.72
2023-01-27T12:44:15.990Z,102718.09
2023-01-27T12:46:57.653Z,102713.84
2023-01-27T12:49:30.654Z,102709.28
2023-01-27T12:51:57.228Z,102702.03
2023-01-27T12:54:29.494Z,102702.22
2023-01-27T12:57:02.019Z,102702.09
2023-01-27T12:59:28.790Z,102695.50
2023-01-27T13:02:16.315Z,102697.75
2023-01-27T13:04:44.183Z,102698.59
2023-01-27T13:07:17.841Z,102697.56
2023-01-27T13:10:02.754Z,102699.28
2023-01-27T13:12:35.249Z,102693.84
2023-01-27T13:15:19.866Z,102691.00
2023-01-27T13:17:50.468Z,102689.16
2023-01-27T13:20:31.879Z,102689.69
2023-01-27T13:23:10.325Z,102693.06
2023-01-27T13:25:58.065Z,102689.97
2023-01-27T13:28:46.061Z,102696.94
2023-01-27T13:31:30.119Z,102698.34
2023-01-27T13:34:05.995Z,102700.00
2023-01-27T13:36:40.297Z,102686.81
2023-01-27T13:39:12.148Z,102698.66
2023-01-27T13:42:21.170Z,102704.28
2023-01-27T13:45:05.792Z,102700.00
2023-01-27T13:47:45.387Z,102693.91
2023-01-27T13:50:32.601Z,102707.00
2023-01-27T13:53:01.427Z,102700.00
2023-01-27T13:55:59.995Z,102703.56
2023-01-27T13:58:47.630Z,102698.69
2023-01-27T14:01:32.637Z,102700.56
2023-01-27T14:04:33.676Z,102701.09
2023-01-27T14:07:13.791Z,102700.72
2023-01-27T14:10:17.434Z,102700.78
2023-01-27T14:13:10.288Z,102708.91
2023-01-27T14:15:47.540Z,102706.53
2023-01-27T14:18:26.154Z,102703.50
2023-01-27T14:21:10.907Z,102709.59
2023-01-27T14:23:43.520Z,102696.38
2023-01-27T14:26:47.740Z,102709.13
2023-01-27T14:29:53.701Z,102711.16
2023-01-27T14:32:29.462Z,102706.03
2023-01-27T14:35:14.611Z,102715.00
2023-01-27T14:37:52.486Z,102720.75
2023-01-27T14:40:33.332Z,102720.75
2023-01-27T14:42:59.813Z,102722.59
2023-01-27T14:45:38.001Z,102724.63
2023-01-27T14:48:54.088Z,102728.53
2023-01-27T14:51:50.724Z,102727.16
2023-01-27T14:54:39.084Z,102726.16
2023-01-27T14:57:37.717Z,102734.59
2023-01-27T15:00:18.531Z,102734.59
2023-01-27T15:02:52.433Z,102736.59
2023-01-27T15:05:34.469Z,102739.03
2023-01-27T15:08:19.480Z,102744.50
2023-01-27T15:11:20.572Z,102738.31
2023-01-27T15:14:02.023Z,102752.69
2023-01-27T15:17:05.492Z,102756.41
2023-01-27T15:19:51.666Z,102757.59
2023-01-27T15:22:33.042Z,102758.75
2023-01-27T15:25:19.953Z,102767.88
2023-01-27T15:27:48.468Z,102761.75
2023-01-27T15:30:24.118Z,102769.88
2023-01-27T15:32:50.688Z,102770.91
2023-01-27T15:35:30.543Z,102775.47
2023-01-27T15:38:07.790Z,102781.56
2023-01-27T15:41:00.324Z,102778.00
2023-01-27T15:43:30.046Z,102776.47
2023-01-27T15:45:58.135Z,102777.47
2023-01-27T15:48:33.089Z,102774.06
2023-01-27T15:51:03.036Z,102777.63
2023-01-27T15:53:31.718Z,102775.78
2023-01-27T15:56:00.648Z,102777.78
2023-01-27T15:58:35.705Z,102768.81
2023-01-27T16:01:05.151Z,102780.81
2023-01-27T16:03:44.864Z,102781.13
2023-01-27T16:06:18.058Z,102791.94
2023-01-27T16:08:49.183Z,102785.81
2023-01-27T16:11:40.365Z,102776.91
2023-01-27T16:14:37.311Z,102790.09
2023-01-27T16:17:06.771Z,102784.09
2023-01-27T16:19:39.051Z,102792.22
2023-01-27T16:22:11.920Z,102794.13
2023-01-27T16:24:45.996Z,102794.13
2023-01-27T16:27:50.042Z,102791.22
2023-01-27T16:30:25.925Z,102788.84
2023-01-27T16:33:02.844Z,102783.56
2023-01-27T16:35:40.270Z,102796.28
2023-01-27T16:38:19.143Z,102797.28
2023-01-27T16:40:51.849Z,102801.97
2023-01-27T16:43:27.376Z,102806.41
2023-01-27T16:45:55.567Z,102808.97
2023-01-27T16:48:42.276Z,102820.31
2023-01-27T16:51:24.684Z,102818.22
2023-01-27T16:53:54.753Z,102823.34
2023-01-27T16:56:35.414Z,102819.78
2023-01-27T16:59:05.438Z,102822.63
2023-01-27T17:01:42.880Z,102822.94
2023-01-27T17:04:20.199Z,102831.75
2023-01-27T17:06:48.926Z,102830.63
2023-01-27T17:09:27.359Z,102828.91
2023-01-27T17:11:55.484Z,102826.34
2023-01-27T17:14:32.139Z,102837.69
2023-01-27T17:17:01.492Z,102841.72
2023-01-27T17:19:31.571Z,102835.75
2023-01-27T17:22:06.519Z,102841.72
2023-01-27T17:24:36.483Z,102841.88
2023-01-27T17:27:18.075Z,102840.03
2023-01-27T17:29:47.321Z,102848.84
2023-01-27T17:32:21.867Z,102847.13
2023-01-27T17:34:55.422Z,102853.41
2023-01-27T17:37:24.263Z,102851.72
2023-01-27T17:40:03.596Z,102857.97
2023-01-27T17:42:33.917Z,102858.81
2023-01-27T17:45:22.492Z,102863.09
2023-01-27T17:47:49.783Z,102857.97
2023-01-27T17:50:22.973Z,102860.13
2023-01-27T17:52:56.241Z,102865.53
2023-01-27T17:55:25.605Z,102859.25
2023-01-27T17:58:03.271Z,102862.28
2023-01-27T18:00:33.603Z,102863.84
2023-01-27T18:03:03.632Z,102866.56
2023-01-27T18:05:34.156Z,102867.38
2023-01-27T18:08:01.625Z,102869.09
2023-01-27T18:10:34.204Z,102871.66
2023-01-27T18:13:15.869Z,102881.50
2023-01-27T18:16:00.988Z,102874.69
2023-01-27T18:18:32.841Z,102880.63
2023-01-27T18:20:59.282Z,102874.38
2023-01-27T18:23:31.218Z,102875.38
2023-01-27T18:26:09.969Z,102882.94
2023-01-27T18:28:38.131Z,102874.50
2023-01-27T18:31:12.245Z,102884.47
2023-01-27T18:33:38.980Z,102880.78
2023-01-27T18:36:05.926Z,102878.91
2023-01-27T18:38:32.641Z,102884.47
2023-01-27T18:41:10.488Z,102890.91
2023-01-27T18:43:37.238Z,102881.09
2023-01-27T18:46:10.060Z,102886.63
2023-01-27T18:48:39.035Z,102881.22
2023-01-27T18:51:14.063Z,102886.09
2023-01-27T18:53:41.009Z,102891.19
2023-01-27T18:56:08.160Z,102900.16
2023-01-27T18:58:35.534Z,102907.44
2023-01-27T19:01:03.295Z,102900.47
2023-01-27T19:03:34.403Z,102906.75
2023-01-27T19:06:01.508Z,102904.16
2023-01-27T19:08:28.165Z,102905.03
2023-01-27T19:10:54.709Z,102918.56
2023-01-27T19:13:21.363Z,102914.13
2023-01-27T19:15:51.013Z,102919.56
2023-01-27T19:18:26.288Z,102923.13
2023-01-27T19:20:53.431Z,102919.84
2023-01-27T19:23:21.119Z,102924.28
2023-01-27T19:25:51.436Z,102927.66
2023-01-27T19:28:23.812Z,102935.78
2023-01-27T19:30:50.561Z,102935.78
2023-01-27T19:33:22.147Z,102930.69
2023-01-27T19:35:55.866Z,102929.81
2023-01-27T19:38:23.645Z,102925.56
2023-01-27T19:40:50.371Z,102924.72
2023-01-27T19:43:17.278Z,102931.84
2023-01-27T19:45:46.146Z,102938.41
2023-01-27T19:48:30.569Z,102939.78
2023-01-27T19:50:57.226Z,102929.28
2023-01-27T19:53:24.471Z,102929.59
2023-01-27T19:55:51.049Z,102925.03
2023-01-27T19:58:24.614Z,102940.41
2023-01-27T20:00:52.038Z,102934.44
2023-01-27T20:03:18.762Z,102945.13
2023-01-27T20:05:45.661Z,102944.28
2023-01-27T20:08:20.419Z,102942.41
2023-01-27T20:10:47.123Z,102939.00
2023-01-27T20:13:18.000Z,102948.81
2023-01-27T20:15:45.012Z,102942.56
2023-01-27T20:18:17.736Z,102945.69
2023-01-27T20:20:45.296Z,102942.69
2023-01-27T20:23:15.882Z,102943.00
2023-01-27T20:25:42.394Z,102949.25
2023-01-27T20:28:09.702Z,102948.28
2023-01-27T20:30:36.667Z,102943.00
2023-01-27T20:33:04.562Z,102945.88
2023-01-27T20:35:31.434Z,102947.56
2023-01-27T20:37:58.318Z,102948.41
2023-01-27T20:40:28.517Z,102940.59
2023-01-27T20:42:55.563Z,102948.56
2023-01-27T20:45:22.727Z,102945.00
2023-01-27T20:47:51.006Z,102952.41
2023-01-27T20:50:18.173Z,102949.56
2023-01-27T20:52:44.811Z,102944.28
2023-01-27T20:55:13.672Z,102945.00
2023-01-27T20:57:40.370Z,102945.44
2023-01-27T21:00:11.212Z,102947.00
2023-01-27T21:02:37.837Z,102942.88
2023-01-27T21:05:04.610Z,102946.13
2023-01-27T21:07:31.197Z,102944.59
2023-01-27T21:09:58.991Z,102940.91
2023-01-27T21:12:27.228Z,102941.75
2023-01-27T21:14:53.763Z,102936.06
2023-01-27T21:17:20.312Z,102941.03
2023-01-27T21:19:46.885Z,102947.59
2023-01-27T21:22:13.377Z,102941.63
2023-01-27T21:24:40.035Z,102946.59
2023-01-27T21:27:06.917Z,102948.47
2023-01-27T21:29:33.511Z,102944.19
2023-01-27T21:32:00.531Z,102947.75
2023-01-27T21:34:27.089Z,102939.94
2023-01-27T21:36:55.795Z,102940.47
2023-01-27T21:39:23.349Z,102944.47
2023-01-27T21:41:52.457Z,102936.22
2023-01-27T21:44:46.712Z,102935.38
2023-01-27T21:47:19.061Z,102930.66
2023-01-27T21:50:02.753Z,102929.97
2023-01-27T21:52:32.821Z,102924.84
2023-01-27T21:55:01.186Z,102918.59
2023-01-27T21:57:27.935Z,102911.59
2023-01-27T21:59:54.810Z,102914.88
2023-01-27T22:02:21.760Z,102909.75
2023-01-27T22:04:48.373Z,102925.84
2023-01-27T22:07:16.545Z,102919.72
2023-01-27T22:09:43.162Z,102926.84
2023-01-27T22:12:11.724Z,102922.91
2023-01-27T22:14:38.301Z,102917.47
2023-01-27T22:17:04.806Z,102920.03
2023-01-27T22:19:31.446Z,102922.03
2023-01-27T22:21:58.125Z,102921.00
2023-01-27T22:24:24.889Z,102913.38
2023-01-27T22:26:51.753Z,102920.63
2023-01-27T22:29:18.495Z,102921.47
2023-01-27T22:31:45.127Z,102913.19
2023-01-27T22:34:11.773Z,102908.78
2023-01-27T22:36:38.530Z,102909.94
2023-01-27T22:39:05.161Z,102914.78
2023-01-27T22:41:32.052Z,102902.81
2023-01-27T22:43:58.723Z,102905.25
2023-01-27T22:46:25.510Z,102900.00
2023-01-27T22:48:52.183Z,102906.09
2023-01-27T22:51:18.795Z,102900.13
2023-01-27T22:53:46.454Z,102900.00
2023-01-27T22:56:13.060Z,102898.28
2023-01-27T22:58:39.802Z,102901.28
2023-01-27T23:01:07.203Z,102915.66
2023-01-27T23:03:34.059Z,102905.41
2023-01-27T23:06:09.685Z,102918.06
2023-01-27T23:08:36.425Z,102917.50
2023-01-27T23:11:04.965Z,102917.38
2023-01-27T23:13:32.439Z,102911.22
2023-01-27T23:15:59.198Z,102918.66
2023-01-27T23:18:25.815Z,102905.56
2023-01-27T23:20:52.773Z,102904.41
2023-01-27T23:23:19.599Z,102911.28
2023-01-27T23:25:47.754Z,102911.97
2023-01-27T23:28:17.360Z,102912.69
2023-01-27T23:30:48.807Z,102915.53
2023-01-27T23:33:17.391Z,102915.53
2023-01-27T23:35:44.781Z,102915.22
2023-01-27T23:38:26.414Z,102923.78
2023-01-27T23:41:12.626Z,102917.53
2023-01-27T23:43:39.373Z,102912.41
2023-01-27T23:46:06.201Z,102914.97
2023-01-27T23:48:32.836Z,102918.38
2023-01-27T23:51:06.198Z,102914.97
2023-01-27T23:53:32.818Z,102911.13
2023-01-27T23:55:59.947Z,102909.88
2023-01-27T23:58:27.632Z,102911.53
